Time;durP1;ratioP1;P1;durP2;ratioP2;P2;SDS_P1;SDS_P2;PMS_P1;PMS_P2;Temp;Humidity;BMP_temperature;BMP_pressure;BME280_temperature;BME280_humidity;BME280_pressure;Samples;Min_cycle;Max_cycle;Signal;HPM_P1;HPM_P2
2020/12/19 13:05:25;;;;;;;50.78;30.08;;;;;;;;;;5027981;27;20422;-93
2020/12/19 13:07:51;;;;;;;52.40;29.42;;;;;;;;;;5114511;28;20035;-94
2020/12/19 13:10:51;;;;;;;55.58;31.83;;;;;;;;;;5074520;28;20379;-82
2020/12/19 13:13:18;;;;;;;83.47;41.85;;;;;;;;;;5061535;28;20112;-82
2020/12/19 13:16:03;;;;;;;98.13;48.47;;;;;;;;;;5054152;28;20415;-81
2020/12/19 13:18:29;;;;;;;101.60;46.10;;;;;;;;;;5044362;28;20120;-82
2020/12/19 13:20:55;;;;;;;87.03;43.90;;;;;;;;;;5064146;28;20025;-81
2020/12/19 13:23:21;;;;;;;83.97;46.83;;;;;;;;;;5054387;28;20032;-82
2020/12/19 13:25:47;;;;;;;114.82;59.17;;;;;;;;;;5068546;28;20059;-82
2020/12/19 13:28:13;;;;;;;86.25;47.22;;;;;;;;;;5074799;28;20033;-82
2020/12/19 13:33:43;;;;;;;98.38;56.90;;;;;;;;;;5073973;28;20027;-83
2020/12/19 13:36:09;;;;;;;78.63;46.85;;;;;;;;;;5071222;28;20091;-82
2020/12/19 13:38:35;;;;;;;78.70;47.75;;;;;;;;;;5060899;28;20037;-83
2020/12/19 13:41:01;;;;;;;89.85;49.80;;;;;;;;;;5054361;28;20048;-82
2020/12/19 13:43:27;;;;;;;86.35;49.13;;;;;;;;;;5054267;28;20104;-82
2020/12/19 13:45:53;;;;;;;88.07;46.53;;;;;;;;;;5053135;28;20021;-83
2020/12/19 13:48:19;;;;;;;80.30;44.33;;;;;;;;;;5053976;28;20059;-83
2020/12/19 13:50:46;;;;;;;64.10;36.80;;;;;;;;;;5054106;28;20036;-82
2020/12/19 13:53:12;;;;;;;65.40;36.38;;;;;;;;;;5053900;28;20048;-82
2020/12/19 13:55:38;;;;;;;66.65;38.60;;;;;;;;;;5045755;28;20034;-82
2020/12/19 13:58:04;;;;;;;73.35;40.72;;;;;;;;;;5034319;28;20025;-82
2020/12/19 14:00:30;;;;;;;87.00;43.47;;;;;;;;;;5036774;28;20068;-82
2020/12/19 14:02:56;;;;;;;81.47;43.20;;;;;;;;;;5054380;28;20032;-83
2020/12/19 14:05:23;;;;;;;108.35;50.70;;;;;;;;;;5054115;28;20032;-83
2020/12/19 14:07:49;;;;;;;93.20;45.80;;;;;;;;;;5064286;28;20067;-83
2020/12/19 14:10:17;;;;;;;97.07;46.35;;;;;;;;;;5060031;28;20049;-84
2020/12/19 14:12:43;;;;;;;109.30;50.47;;;;;;;;;;5072804;28;20031;-83
2020/12/19 14:21:38;;;;;;;83.88;40.95;;;;;;;;;;5046768;28;20028;-82
2020/12/19 14:24:05;;;;;;;69.05;35.90;;;;;;;;;;5039460;28;20014;-82
2020/12/19 14:26:31;;;;;;;71.53;38.17;;;;;;;;;;5046292;28;20140;-83
2020/12/19 14:28:57;;;;;;;83.57;44.08;;;;;;;;;;5059770;28;20032;-77
2020/12/19 14:31:23;;;;;;;88.47;47.28;;;;;;;;;;5059567;28;20399;-75
2020/12/19 14:33:49;;;;;;;86.10;47.47;;;;;;;;;;5058549;28;20021;-77
2020/12/19 14:36:17;;;;;;;172.85;70.57;;;;;;;;;;5058180;28;20013;-79
2020/12/19 14:38:43;;;;;;;166.68;67.30;;;;;;;;;;5033700;28;20026;-83
2020/12/19 14:41:10;;;;;;;117.18;52.30;;;;;;;;;;5038975;28;20113;-79
2020/12/19 14:43:37;;;;;;;136.45;50.88;;;;;;;;;;5032569;28;20064;-79
2020/12/19 14:46:04;;;;;;;114.38;46.58;;;;;;;;;;5037336;28;20108;-77
2020/12/19 14:48:30;;;;;;;115.53;49.63;;;;;;;;;;5037806;28;20124;-78
2020/12/19 14:50:56;;;;;;;124.55;52.88;;;;;;;;;;5039054;28;20060;-78
2020/12/19 14:53:23;;;;;;;134.13;57.40;;;;;;;;;;5039193;28;20017;-78
2020/12/19 14:55:49;;;;;;;132.07;56.65;;;;;;;;;;5038184;28;20025;-78
2020/12/19 14:58:15;;;;;;;93.13;42.95;;;;;;;;;;5038841;28;20025;-79
2020/12/19 15:01:18;;;;;;;78.90;41.70;;;;;;;;;;5038050;28;20037;-78
2020/12/19 15:03:45;;;;;;;89.65;45.53;;;;;;;;;;5037848;28;20368;-78
2020/12/19 15:06:12;;;;;;;77.63;42.55;;;;;;;;;;5036678;28;20034;-78
2020/12/19 15:08:42;;;;;;;67.57;40.47;;;;;;;;;;5038976;28;20041;-80
2020/12/19 15:11:11;;;;;;;79.63;42.88;;;;;;;;;;5025335;28;20382;-80
2020/12/19 15:13:38;;;;;;;87.75;46.67;;;;;;;;;;5038380;28;20104;-79
2020/12/19 15:16:24;;;;;;;88.82;49.53;;;;;;;;;;5028987;28;20104;-80
2020/12/19 15:18:51;;;;;;;93.40;51.88;;;;;;;;;;5045950;28;20044;-80
2020/12/19 15:21:19;;;;;;;88.50;49.55;;;;;;;;;;5036068;28;20061;-80
2020/12/19 15:23:45;;;;;;;92.75;50.33;;;;;;;;;;5038497;28;20025;-79
2020/12/19 15:26:11;;;;;;;112.88;57.25;;;;;;;;;;5028276;28;20116;-78
2020/12/19 15:28:37;;;;;;;139.38;66.82;;;;;;;;;;5034407;28;20040;-78
2020/12/19 15:31:22;;;;;;;123.32;64.30;;;;;;;;;;5036195;28;20033;-78
2020/12/19 15:33:48;;;;;;;106.53;56.40;;;;;;;;;;5036775;28;20033;-79
2020/12/19 15:36:14;;;;;;;112.50;58.88;;;;;;;;;;5028758;28;20304;-78
2020/12/19 15:38:41;;;;;;;125.78;65.70;;;;;;;;;;5037577;28;20026;-78
2020/12/19 15:41:11;;;;;;;117.20;60.10;;;;;;;;;;5037709;28;20072;-78
2020/12/19 15:43:37;;;;;;;154.00;75.70;;;;;;;;;;5033539;28;20017;-77
2020/12/19 15:46:05;;;;;;;142.20;72.40;;;;;;;;;;5035468;28;20104;-78
2020/12/19 15:48:31;;;;;;;132.13;70.07;;;;;;;;;;5037732;28;20307;-77
2020/12/19 15:50:58;;;;;;;124.80;67.05;;;;;;;;;;5027429;28;20327;-77
2020/12/19 15:53:25;;;;;;;138.15;66.30;;;;;;;;;;5037236;28;20314;-78
2020/12/19 15:55:51;;;;;;;115.00;60.67;;;;;;;;;;5036913;28;20108;-78
2020/12/19 15:58:17;;;;;;;98.40;51.65;;;;;;;;;;5054893;28;20143;-78
2020/12/19 16:00:44;;;;;;;89.30;48.25;;;;;;;;;;5043912;28;20025;-78
2020/12/19 16:03:10;;;;;;;105.03;54.13;;;;;;;;;;5037554;28;20017;-77
2020/12/19 16:05:37;;;;;;;106.70;56.35;;;;;;;;;;5036767;28;20113;-77
2020/12/19 16:08:03;;;;;;;141.80;66.22;;;;;;;;;;5032054;28;20026;-78
2020/12/19 16:10:29;;;;;;;174.52;81.75;;;;;;;;;;5036912;28;20072;-77
2020/12/19 16:12:56;;;;;;;189.45;100.32;;;;;;;;;;5031257;28;20120;-78
2020/12/19 16:15:40;;;;;;;190.45;103.45;;;;;;;;;;5037930;28;20017;-81
2020/12/19 16:18:07;;;;;;;136.25;72.30;;;;;;;;;;5036889;28;20132;-85
2020/12/19 16:20:33;;;;;;;143.30;78.75;;;;;;;;;;5033470;28;21662;-83
2020/12/19 16:22:59;;;;;;;143.90;81.90;;;;;;;;;;5037493;28;20030;-82
2020/12/19 16:25:26;;;;;;;135.35;75.18;;;;;;;;;;5035232;28;20025;-84
2020/12/19 16:27:52;;;;;;;163.60;94.40;;;;;;;;;;5022431;28;20025;-82
2020/12/19 16:30:18;;;;;;;150.65;86.47;;;;;;;;;;5037921;28;20049;-83
2020/12/19 16:32:45;;;;;;;152.25;85.70;;;;;;;;;;5038132;28;20025;-83
2020/12/19 16:35:12;;;;;;;141.55;79.78;;;;;;;;;;5037334;28;20061;-84
2020/12/19 16:37:41;;;;;;;141.93;80.25;;;;;;;;;;5026512;28;20037;-83
2020/12/19 16:40:07;;;;;;;151.23;83.03;;;;;;;;;;5020626;28;20033;-83
2020/12/19 16:42:35;;;;;;;147.55;82.25;;;;;;;;;;5036986;28;20037;-83
2020/12/19 16:45:01;;;;;;;154.18;82.93;;;;;;;;;;5036157;28;20056;-83
2020/12/19 16:50:31;;;;;;;154.32;83.15;;;;;;;;;;5037492;28;20044;-83
2020/12/19 16:52:57;;;;;;;158.32;82.82;;;;;;;;;;5055600;28;20028;-83
2020/12/19 16:55:23;;;;;;;148.38;81.80;;;;;;;;;;5075382;28;20093;-83
2020/12/19 16:57:49;;;;;;;152.43;82.05;;;;;;;;;;5083330;28;20029;-83
2020/12/19 17:06:27;;;;;;;112.40;56.67;;;;;;;;;;5096603;28;20094;-83
2020/12/19 17:08:53;;;;;;;79.03;43.35;;;;;;;;;;5061769;28;20044;-82
2020/12/19 17:11:25;;;;;;;75.78;42.88;;;;;;;;;;5079654;28;20065;-82
2020/12/19 17:13:51;;;;;;;;;;;;;;;;;;5079066;28;20028;-83
2020/12/19 17:16:36;;;;;;;224.90;109.95;;;;;;;;;;5087643;28;20448;-83
2020/12/19 17:19:02;;;;;;;224.70;115.72;;;;;;;;;;5076778;28;20025;-83
2020/12/19 17:21:31;;;;;;;218.75;115.15;;;;;;;;;;5088553;28;20028;-82
2020/12/19 17:23:58;;;;;;;200.73;111.78;;;;;;;;;;5094678;28;20042;-83
2020/12/19 17:26:37;;;;;;;140.23;77.78;;;;;;;;;;5097280;28;20051;-84
2020/12/19 17:29:04;;;;;;;141.43;78.88;;;;;;;;;;5083962;28;20035;-83
2020/12/19 17:31:30;;;;;;;193.25;100.70;;;;;;;;;;5094597;28;20413;-83
2020/12/19 17:33:57;;;;;;;192.10;107.32;;;;;;;;;;5082610;28;20020;-83
2020/12/19 17:36:24;;;;;;;187.90;99.07;;;;;;;;;;5079092;28;20050;-83
2020/12/19 17:38:51;;;;;;;175.77;94.57;;;;;;;;;;5084168;28;20032;-83
2020/12/19 17:41:24;;;;;;;203.75;101.03;;;;;;;;;;5092088;28;20069;-83
2020/12/19 17:43:50;;;;;;;208.07;104.03;;;;;;;;;;5096502;28;20066;-83
2020/12/19 17:46:17;;;;;;;204.02;109.90;;;;;;;;;;5079435;28;20145;-82
2020/12/19 17:48:43;;;;;;;222.30;113.57;;;;;;;;;;5078826;28;20041;-83
2020/12/19 17:51:10;;;;;;;201.90;99.72;;;;;;;;;;5084161;28;20432;-83
2020/12/19 17:53:37;;;;;;;170.63;87.55;;;;;;;;;;5056113;28;20072;-83
2020/12/19 17:56:03;;;;;;;166.02;86.25;;;;;;;;;;5062243;28;20363;-84
2020/12/19 17:58:29;;;;;;;182.77;93.47;;;;;;;;;;5074977;28;20065;-84
2020/12/19 18:04:00;;;;;;;192.00;98.38;;;;;;;;;;5082040;28;20031;-83
2020/12/19 18:06:26;;;;;;;194.98;99.65;;;;;;;;;;5086652;28;20107;-84
2020/12/19 18:08:53;;;;;;;156.60;84.70;;;;;;;;;;5085679;28;20049;-83
2020/12/19 18:11:19;;;;;;;162.23;82.30;;;;;;;;;;5052431;28;20437;-84
2020/12/19 18:13:45;;;;;;;147.48;81.07;;;;;;;;;;5061100;28;20028;-83
2020/12/19 18:16:12;;;;;;;142.98;76.93;;;;;;;;;;5072452;28;20406;-84
2020/12/19 18:18:38;;;;;;;136.50;75.72;;;;;;;;;;5061095;28;20151;-83
2020/12/19 18:21:04;;;;;;;139.20;66.47;;;;;;;;;;5049680;28;20029;-83
2020/12/19 18:23:30;;;;;;;176.32;86.95;;;;;;;;;;5062784;28;20053;-82
2020/12/19 18:25:57;;;;;;;170.00;83.53;;;;;;;;;;5071486;28;20028;-83
2020/12/19 18:28:27;;;;;;;144.60;75.70;;;;;;;;;;5059910;28;20025;-83
2020/12/19 18:37:00;;;;;;;150.05;75.93;;;;;;;;;;5053856;28;20032;-83
2020/12/19 18:39:27;;;;;;;154.68;79.15;;;;;;;;;;5060461;28;20044;-82
2020/12/19 18:41:57;;;;;;;131.10;69.63;;;;;;;;;;5062007;28;20029;-82
2020/12/19 18:44:23;;;;;;;153.27;79.53;;;;;;;;;;5077441;28;20114;-83
2020/12/19 18:46:50;;;;;;;159.98;79.25;;;;;;;;;;5063029;28;20021;-83
2020/12/19 18:49:17;;;;;;;123.75;61.13;;;;;;;;;;5061087;28;20131;-82
2020/12/19 18:51:43;;;;;;;109.50;59.45;;;;;;;;;;5054557;28;20029;-82
2020/12/19 18:54:10;;;;;;;104.85;57.40;;;;;;;;;;5060746;28;20409;-82
2020/12/19 18:56:36;;;;;;;99.03;56.70;;;;;;;;;;5075405;28;20028;-82
2020/12/19 18:59:03;;;;;;;102.85;57.42;;;;;;;;;;5056965;28;20040;-82
2020/12/19 19:04:33;;;;;;;101.93;59.40;;;;;;;;;;5057593;28;20048;-81
2020/12/19 19:06:59;;;;;;;113.97;60.67;;;;;;;;;;5047455;28;20417;-82
2020/12/19 19:09:27;;;;;;;110.55;57.03;;;;;;;;;;5069624;28;20445;-81
2020/12/19 19:11:53;;;;;;;113.53;57.15;;;;;;;;;;5087861;28;20039;-82
2020/12/19 19:14:20;;;;;;;106.07;53.55;;;;;;;;;;5091379;28;20020;-82
2020/12/19 19:16:47;;;;;;;104.22;52.88;;;;;;;;;;5083514;28;20027;-81
2020/12/19 19:19:14;;;;;;;93.80;48.35;;;;;;;;;;5078801;28;20020;-83
2020/12/19 19:21:42;;;;;;;92.30;50.70;;;;;;;;;;5079775;28;20067;-81
2020/12/19 19:24:14;;;;;;;97.57;50.17;;;;;;;;;;5071199;28;20044;-82
2020/12/19 19:26:40;;;;;;;101.47;53.85;;;;;;;;;;5067264;28;20032;-82
2020/12/19 19:29:06;;;;;;;93.10;50.28;;;;;;;;;;5078092;28;20044;-81
2020/12/19 19:31:55;;;;;;;91.47;48.03;;;;;;;;;;5079630;28;20024;-81
2020/12/19 19:34:25;;;;;;;102.97;51.42;;;;;;;;;;5077840;28;20036;-82
2020/12/19 19:36:52;;;;;;;93.10;49.35;;;;;;;;;;5074810;28;20426;-82
2020/12/19 19:39:19;;;;;;;90.28;46.50;;;;;;;;;;5078203;28;20078;-82
2020/12/19 19:41:45;;;;;;;91.90;49.20;;;;;;;;;;5077823;28;20112;-82
2020/12/19 19:44:11;;;;;;;94.57;49.47;;;;;;;;;;5086123;28;20043;-82
2020/12/19 19:46:39;;;;;;;90.60;47.95;;;;;;;;;;5092814;28;20091;-83
2020/12/19 19:49:06;;;;;;;87.57;46.00;;;;;;;;;;5078448;28;20333;-81
2020/12/19 19:51:32;;;;;;;87.88;45.92;;;;;;;;;;5063393;28;20032;-82
2020/12/19 19:53:59;;;;;;;86.68;45.70;;;;;;;;;;5084401;28;20055;-82
2020/12/19 19:56:25;;;;;;;85.63;46.80;;;;;;;;;;5072301;28;20021;-82
2020/12/19 19:58:51;;;;;;;91.63;49.00;;;;;;;;;;5057869;28;20108;-82
2020/12/19 20:01:17;;;;;;;87.25;46.65;;;;;;;;;;5058033;28;20021;-82
2020/12/19 20:04:01;;;;;;;91.90;47.30;;;;;;;;;;5068939;28;20472;-82
2020/12/19 20:06:27;;;;;;;85.18;46.88;;;;;;;;;;5089924;28;20036;-82
2020/12/19 20:08:53;;;;;;;92.97;51.47;;;;;;;;;;5079397;28;20048;-82
2020/12/19 20:11:20;;;;;;;101.63;54.72;;;;;;;;;;5079959;28;20028;-82
2020/12/19 20:13:49;;;;;;;94.90;50.80;;;;;;;;;;5096260;28;20016;-82
2020/12/19 20:16:22;;;;;;;92.30;50.17;;;;;;;;;;5059510;28;20364;-82
2020/12/19 20:18:48;;;;;;;163.77;68.07;;;;;;;;;;5077286;28;20116;-83
2020/12/19 20:21:14;;;;;;;206.70;78.03;;;;;;;;;;5077208;28;20029;-82
2020/12/19 20:23:40;;;;;;;262.30;105.85;;;;;;;;;;5071652;28;20112;-83
2020/12/19 20:26:06;;;;;;;102.50;50.03;;;;;;;;;;5079718;28;20028;-82
2020/12/19 20:28:32;;;;;;;94.13;48.15;;;;;;;;;;5086721;28;20029;-83
2020/12/19 20:30:58;;;;;;;101.10;52.88;;;;;;;;;;5083346;28;20425;-82
2020/12/19 20:33:24;;;;;;;104.03;51.20;;;;;;;;;;5060029;28;20039;-82
2020/12/19 20:35:50;;;;;;;93.10;49.47;;;;;;;;;;5098196;28;20085;-82
2020/12/19 20:38:17;;;;;;;111.28;57.58;;;;;;;;;;5081907;28;20022;-82
2020/12/19 20:40:44;;;;;;;101.78;54.25;;;;;;;;;;5059268;28;20032;-82
2020/12/19 20:43:10;;;;;;;98.72;51.55;;;;;;;;;;5073182;28;20059;-83
2020/12/19 20:45:36;;;;;;;145.52;73.13;;;;;;;;;;5093064;28;20410;-82
2020/12/19 20:48:03;;;;;;;173.30;79.72;;;;;;;;;;5092135;28;20043;-81
2020/12/19 20:50:29;;;;;;;172.43;78.88;;;;;;;;;;5056173;28;20025;-83
2020/12/19 20:52:55;;;;;;;120.78;59.67;;;;;;;;;;5082365;28;20043;-83
2020/12/19 20:55:21;;;;;;;137.27;65.40;;;;;;;;;;5075786;28;20043;-84
2020/12/19 20:57:50;;;;;;;113.82;56.20;;;;;;;;;;5082830;28;20039;-85
2020/12/19 21:00:16;;;;;;;115.65;60.60;;;;;;;;;;5097724;28;20020;-84
2020/12/19 21:02:42;;;;;;;116.40;57.30;;;;;;;;;;5097710;28;20023;-81
2020/12/19 21:05:08;;;;;;;112.20;56.88;;;;;;;;;;5062205;28;20048;-82
2020/12/19 21:07:34;;;;;;;119.65;62.80;;;;;;;;;;5066786;28;20025;-82
2020/12/19 21:10:00;;;;;;;150.07;70.57;;;;;;;;;;5071499;28;20067;-83
2020/12/19 21:12:27;;;;;;;140.20;66.75;;;;;;;;;;5080937;28;20120;-82
2020/12/19 21:14:53;;;;;;;145.80;70.50;;;;;;;;;;5060796;28;20029;-82
2020/12/19 21:20:22;;;;;;;112.15;55.22;;;;;;;;;;5086181;28;20059;-82
2020/12/19 21:22:49;;;;;;;103.82;54.00;;;;;;;;;;5089172;28;20020;-83
2020/12/19 21:25:17;;;;;;;95.93;50.90;;;;;;;;;;5096824;28;20421;-83
2020/12/19 21:27:43;;;;;;;96.55;51.30;;;;;;;;;;5064367;28;20039;-84
2020/12/19 21:30:09;;;;;;;95.38;50.78;;;;;;;;;;5059253;28;20021;-83
2020/12/19 21:32:37;;;;;;;98.03;52.17;;;;;;;;;;5063037;28;20032;-83
2020/12/19 21:35:04;;;;;;;96.90;50.95;;;;;;;;;;5081077;28;20021;-84
2020/12/19 21:37:30;;;;;;;92.10;48.55;;;;;;;;;;5080961;28;20394;-84
2020/12/19 21:39:56;;;;;;;93.28;48.85;;;;;;;;;;5080789;28;20036;-83
2020/12/19 21:42:22;;;;;;;92.68;49.95;;;;;;;;;;5071441;28;20028;-84
2020/12/19 21:44:48;;;;;;;88.60;49.13;;;;;;;;;;5060698;28;20025;-83
2020/12/19 21:47:14;;;;;;;96.57;50.15;;;;;;;;;;5060654;28;20025;-88
2020/12/19 21:49:40;;;;;;;93.82;49.33;;;;;;;;;;5072716;28;20034;-78
2020/12/19 21:52:06;;;;;;;92.28;50.22;;;;;;;;;;5090386;28;20024;-77
2020/12/19 21:54:32;;;;;;;97.93;51.50;;;;;;;;;;5083134;28;20020;-77
2020/12/19 21:56:58;;;;;;;92.90;49.92;;;;;;;;;;5079325;28;20029;-78
2020/12/19 21:59:24;;;;;;;95.55;50.17;;;;;;;;;;5072834;28;20044;-78
2020/12/19 22:01:50;;;;;;;99.35;50.63;;;;;;;;;;5078909;28;20054;-78
2020/12/19 22:04:16;;;;;;;117.95;58.25;;;;;;;;;;5062197;28;20072;-78
2020/12/19 22:06:44;;;;;;;118.32;60.15;;;;;;;;;;5065273;28;20108;-78
2020/12/19 22:09:10;;;;;;;97.90;49.72;;;;;;;;;;5079721;28;20090;-77
2020/12/19 22:11:39;;;;;;;95.15;50.38;;;;;;;;;;5074440;28;20073;-78
2020/12/19 22:14:06;;;;;;;89.68;48.78;;;;;;;;;;5080167;28;20062;-78
2020/12/19 22:16:32;;;;;;;98.20;50.17;;;;;;;;;;5080054;28;20410;-78
2020/12/19 22:19:01;;;;;;;112.63;60.03;;;;;;;;;;5079808;28;20020;-78
2020/12/19 22:21:27;;;;;;;117.07;62.00;;;;;;;;;;5070861;28;20037;-78
2020/12/19 22:23:53;;;;;;;97.00;49.67;;;;;;;;;;5072382;28;20099;-78
2020/12/19 22:26:19;;;;;;;89.47;45.80;;;;;;;;;;5077032;28;20021;-78
2020/12/19 22:28:45;;;;;;;92.82;49.47;;;;;;;;;;5060599;28;20052;-78
2020/12/19 22:31:12;;;;;;;86.75;45.50;;;;;;;;;;5072668;28;20467;-78
2020/12/19 22:33:39;;;;;;;86.63;45.47;;;;;;;;;;5078535;28;20043;-78
2020/12/19 22:36:05;;;;;;;86.13;45.30;;;;;;;;;;5063101;28;20067;-78
2020/12/19 22:38:31;;;;;;;83.43;45.47;;;;;;;;;;5065733;28;20031;-78
2020/12/19 22:40:57;;;;;;;83.43;45.83;;;;;;;;;;5085198;28;20025;-78
2020/12/19 22:43:23;;;;;;;93.20;49.50;;;;;;;;;;5065052;28;20137;-78
2020/12/19 22:45:49;;;;;;;105.35;56.42;;;;;;;;;;5091489;28;20445;-79
2020/12/19 22:48:15;;;;;;;117.68;59.80;;;;;;;;;;5088789;28;20036;-78
2020/12/19 22:50:41;;;;;;;125.00;65.28;;;;;;;;;;5075038;28;20041;-78
2020/12/19 22:53:07;;;;;;;117.38;63.55;;;;;;;;;;5070020;28;20020;-78
2020/12/19 22:55:33;;;;;;;116.57;60.80;;;;;;;;;;5079239;28;20075;-78
2020/12/19 22:57:59;;;;;;;117.50;59.90;;;;;;;;;;5089211;28;20033;-78
2020/12/19 23:00:26;;;;;;;112.70;60.00;;;;;;;;;;5079809;28;20035;-78
2020/12/19 23:02:52;;;;;;;103.47;54.70;;;;;;;;;;5061201;28;20326;-78
2020/12/19 23:05:18;;;;;;;110.05;58.28;;;;;;;;;;5064490;28;20167;-78
2020/12/19 23:07:54;;;;;;;92.25;50.03;;;;;;;;;;5096509;28;20024;-78
2020/12/19 23:10:21;;;;;;;86.55;47.70;;;;;;;;;;5092607;28;20045;-78
2020/12/19 23:12:50;;;;;;;92.10;50.53;;;;;;;;;;5078085;28;20024;-78
2020/12/19 23:15:16;;;;;;;101.32;51.97;;;;;;;;;;5079707;28;20326;-78
2020/12/19 23:17:42;;;;;;;93.25;51.05;;;;;;;;;;5077385;28;20025;-78
2020/12/19 23:20:09;;;;;;;81.18;44.47;;;;;;;;;;5055892;28;20327;-80
2020/12/19 23:22:35;;;;;;;80.90;42.97;;;;;;;;;;5098898;28;20436;-79
2020/12/19 23:25:01;;;;;;;92.85;50.92;;;;;;;;;;5099519;28;20043;-79
2020/12/19 23:27:27;;;;;;;120.10;59.00;;;;;;;;;;5084908;28;20024;-76
2020/12/19 23:29:54;;;;;;;100.15;51.25;;;;;;;;;;5078421;28;20033;-76
2020/12/19 23:32:21;;;;;;;96.88;50.80;;;;;;;;;;5078915;28;20031;-76
2020/12/19 23:34:49;;;;;;;90.55;46.55;;;;;;;;;;5072779;28;20411;-76
2020/12/19 23:37:15;;;;;;;88.72;47.78;;;;;;;;;;5088381;28;20028;-75
2020/12/19 23:39:41;;;;;;;87.25;47.05;;;;;;;;;;5064873;28;20036;-82
2020/12/19 23:42:07;;;;;;;91.07;47.95;;;;;;;;;;5056379;28;20115;-79
2020/12/19 23:44:33;;;;;;;111.25;58.17;;;;;;;;;;5078313;28;20079;-81
2020/12/19 23:46:59;;;;;;;93.25;51.53;;;;;;;;;;5082780;28;20051;-79
2020/12/19 23:49:25;;;;;;;91.65;49.35;;;;;;;;;;5077761;28;20025;-80
2020/12/19 23:51:51;;;;;;;92.35;48.40;;;;;;;;;;5081311;28;20028;-80
2020/12/19 23:54:18;;;;;;;94.07;49.22;;;;;;;;;;5086649;28;20016;-80
2020/12/19 23:56:44;;;;;;;90.80;49.28;;;;;;;;;;5085793;28;20040;-80
2020/12/19 23:59:10;;;;;;;88.93;46.40;;;;;;;;;;5060364;28;20025;-80
